sensor_id;sensor_type;location;lat;lon;timestamp;pressure;altitude;pressure_sealevel;temperature;humidity
34374;BME280;20637;55.770;37.592;2024-02-16T00:00:24;101399.25;;;-6.90;67.97
34374;BME280;20637;55.770;37.592;2024-02-16T00:02:50;101394.84;;;-6.88;68.47
34374;BME280;20637;55.770;37.592;2024-02-16T00:05:16;101393.13;;;-6.90;68.18
34374;BME280;20637;55.770;37.592;2024-02-16T00:07:41;101399.19;;;-6.85;68.54
34374;BME280;20637;55.770;37.592;2024-02-16T00:10:08;101398.28;;;-6.81;68.20
34374;BME280;20637;55.770;37.592;2024-02-16T00:12:35;101398.31;;;-6.87;68.09
34374;BME280;20637;55.770;37.592;2024-02-16T00:15:01;101404.53;;;-6.91;67.65
34374;BME280;20637;55.770;37.592;2024-02-16T00:17:27;101398.38;;;-6.90;68.01
34374;BME280;20637;55.770;37.592;2024-02-16T00:19:56;101398.38;;;-6.89;67.94
34374;BME280;20637;55.770;37.592;2024-02-16T00:22:22;101405.38;;;-6.88;68.15
34374;BME280;20637;55.770;37.592;2024-02-16T00:24:48;101393.06;;;-6.87;67.80
34374;BME280;20637;55.770;37.592;2024-02-16T00:27:14;101389.56;;;-6.85;68.07
34374;BME280;20637;55.770;37.592;2024-02-16T00:29:40;101390.41;;;-6.80;67.89
34374;BME280;20637;55.770;37.592;2024-02-16T00:32:06;101379.03;;;-6.83;68.57
34374;BME280;20637;55.770;37.592;2024-02-16T00:34:36;101384.31;;;-6.86;67.97
34374;BME280;20637;55.770;37.592;2024-02-16T00:37:02;101386.94;;;-6.86;67.94
34374;BME280;20637;55.770;37.592;2024-02-16T00:39:29;101378.22;;;-6.88;68.47
34374;BME280;20637;55.770;37.592;2024-02-16T00:41:55;101384.34;;;-6.88;68.37
34374;BME280;20637;55.770;37.592;2024-02-16T00:44:20;101385.25;;;-6.90;68.41
34374;BME280;20637;55.770;37.592;2024-02-16T00:46:46;101377.41;;;-6.92;68.35
34374;BME280;20637;55.770;37.592;2024-02-16T00:49:12;101371.28;;;-6.92;68.49
34374;BME280;20637;55.770;37.592;2024-02-16T00:51:38;101373.03;;;-6.93;68.51
34374;BME280;20637;55.770;37.592;2024-02-16T00:54:04;101379.06;;;-6.86;68.48
34374;BME280;20637;55.770;37.592;2024-02-16T00:56:31;101378.97;;;-6.79;68.62
34374;BME280;20637;55.770;37.592;2024-02-16T00:58:57;101384.19;;;-6.76;68.01
34374;BME280;20637;55.770;37.592;2024-02-16T01:01:23;101381.56;;;-6.76;68.49
34374;BME280;20637;55.770;37.592;2024-02-16T01:03:50;101387.72;;;-6.78;68.51
34374;BME280;20637;55.770;37.592;2024-02-16T01:06:17;101382.44;;;-6.73;68.88
34374;BME280;20637;55.770;37.592;2024-02-16T01:08:43;101389.34;;;-6.68;68.11
34374;BME280;20637;55.770;37.592;2024-02-16T01:11:09;101384.09;;;-6.65;68.45
34374;BME280;20637;55.770;37.592;2024-02-16T01:13:34;101384.97;;;-6.64;68.62
34374;BME280;20637;55.770;37.592;2024-02-16T01:16:00;101391.94;;;-6.63;68.42
34374;BME280;20637;55.770;37.592;2024-02-16T01:18:28;101382.34;;;-6.67;68.06
34374;BME280;20637;55.770;37.592;2024-02-16T01:20:53;101384.03;;;-6.62;68.71
34374;BME280;20637;55.770;37.592;2024-02-16T01:23:20;101381.41;;;-6.60;68.59
34374;BME280;20637;55.770;37.592;2024-02-16T01:25:45;101380.56;;;-6.64;68.56
34374;BME280;20637;55.770;37.592;2024-02-16T01:28:12;101375.38;;;-6.70;68.49
34374;BME280;20637;55.770;37.592;2024-02-16T01:30:38;101378.84;;;-6.68;68.43
34374;BME280;20637;55.770;37.592;2024-02-16T01:33:05;101385.09;;;-6.77;68.36
34374;BME280;20637;55.770;37.592;2024-02-16T01:35:35;101376.41;;;-6.80;68.38
34374;BME280;20637;55.770;37.592;2024-02-16T01:38:01;101374.56;;;-6.75;68.31
34374;BME280;20637;55.770;37.592;2024-02-16T01:40:27;101373.69;;;-6.74;68.73
34374;BME280;20637;55.770;37.592;2024-02-16T01:42:53;101372.81;;;-6.75;68.85
34374;BME280;20637;55.770;37.592;2024-02-16T01:45:19;101371.88;;;-6.69;68.39
34374;BME280;20637;55.770;37.592;2024-02-16T01:47:47;101365.72;;;-6.66;68.84
34374;BME280;20637;55.770;37.592;2024-02-16T01:50:18;101368.34;;;-6.65;68.27
34374;BME280;20637;55.770;37.592;2024-02-16T01:52:44;101368.25;;;-6.59;68.69
34374;BME280;20637;55.770;37.592;2024-02-16T01:55:10;101369.16;;;-6.63;68.94
34374;BME280;20637;55.770;37.592;2024-02-16T01:57:39;101364.78;;;-6.61;68.38
34374;BME280;20637;55.770;37.592;2024-02-16T02:00:05;101370.97;;;-6.68;68.51
34374;BME280;20637;55.770;37.592;2024-02-16T02:02:36;101361.38;;;-6.70;68.29
34374;BME280;20637;55.770;37.592;2024-02-16T02:05:02;101364.00;;;-6.70;68.50
34374;BME280;20637;55.770;37.592;2024-02-16T02:07:29;101363.13;;;-6.71;68.56
34374;BME280;20637;55.770;37.592;2024-02-16T02:09:55;101366.59;;;-6.67;68.71
34374;BME280;20637;55.770;37.592;2024-02-16T02:12:21;101360.41;;;-6.63;68.78
34374;BME280;20637;55.770;37.592;2024-02-16T02:14:48;101364.78;;;-6.61;68.82
34374;BME280;20637;55.770;37.592;2024-02-16T02:17:14;101362.06;;;-6.56;68.78
34374;BME280;20637;55.770;37.592;2024-02-16T02:19:40;101360.56;;;-6.74;68.89
34374;BME280;20637;55.770;37.592;2024-02-16T02:22:18;101357.09;;;-6.78;68.62
34374;BME280;20637;55.770;37.592;2024-02-16T02:24:45;101358.03;;;-6.83;68.79
34374;BME280;20637;55.770;37.592;2024-02-16T02:27:11;101353.72;;;-6.89;68.74
34374;BME280;20637;55.770;37.592;2024-02-16T02:29:37;101365.97;;;-6.91;69.12
34374;BME280;20637;55.770;37.592;2024-02-16T02:32:03;101354.59;;;-6.90;68.93
34374;BME280;20637;55.770;37.592;2024-02-16T02:34:29;101368.53;;;-6.82;69.25
34374;BME280;20637;55.770;37.592;2024-02-16T02:36:54;101364.88;;;-6.71;69.04
34374;BME280;20637;55.770;37.592;2024-02-16T02:39:20;101368.28;;;-6.63;69.08
34374;BME280;20637;55.770;37.592;2024-02-16T02:41:46;101355.16;;;-6.62;69.38
34374;BME280;20637;55.770;37.592;2024-02-16T02:44:12;101364.78;;;-6.61;69.00
34374;BME280;20637;55.770;37.592;2024-02-16T02:46:38;101368.19;;;-6.56;68.98
34374;BME280;20637;55.770;37.592;2024-02-16T02:49:04;101355.16;;;-6.62;68.48
34374;BME280;20637;55.770;37.592;2024-02-16T02:51:30;101370.09;;;-6.65;68.83
34374;BME280;20637;55.770;37.592;2024-02-16T02:53:55;101360.47;;;-6.68;68.92
34374;BME280;20637;55.770;37.592;2024-02-16T02:56:21;101366.69;;;-6.75;68.58
34374;BME280;20637;55.770;37.592;2024-02-16T02:58:47;101374.56;;;-6.75;68.97
34374;BME280;20637;55.770;37.592;2024-02-16T03:01:13;101377.19;;;-6.73;68.77
34374;BME280;20637;55.770;37.592;2024-02-16T03:03:39;101373.72;;;-6.77;68.79
34374;BME280;20637;55.770;37.592;2024-02-16T03:06:06;101375.53;;;-6.82;68.29
34374;BME280;20637;55.770;37.592;2024-02-16T03:08:33;101379.03;;;-6.83;69.01
34374;BME280;20637;55.770;37.592;2024-02-16T03:10:58;101378.25;;;-6.90;68.86
34374;BME280;20637;55.770;37.592;2024-02-16T03:13:26;101376.47;;;-6.88;69.07
34374;BME280;20637;55.770;37.592;2024-02-16T03:15:51;101383.50;;;-6.90;69.07
34374;BME280;20637;55.770;37.592;2024-02-16T03:18:21;101387.03;;;-6.92;69.46
34374;BME280;20637;55.770;37.592;2024-02-16T03:20:46;101384.41;;;-6.92;69.36
34374;BME280;20637;55.770;37.592;2024-02-16T03:23:14;101384.38;;;-6.89;68.96
34374;BME280;20637;55.770;37.592;2024-02-16T03:25:40;101390.41;;;-6.80;69.08
34374;BME280;20637;55.770;37.592;2024-02-16T03:28:07;101388.56;;;-6.75;69.30
34374;BME280;20637;55.770;37.592;2024-02-16T03:30:33;101397.31;;;-6.74;69.40
34374;BME280;20637;55.770;37.592;2024-02-16T03:32:59;101397.31;;;-6.76;69.19
34374;BME280;20637;55.770;37.592;2024-02-16T03:35:25;101401.69;;;-6.75;69.56
34374;BME280;20637;55.770;37.592;2024-02-16T03:37:52;101401.72;;;-6.76;68.98
34374;BME280;20637;55.770;37.592;2024-02-16T03:40:18;101400.00;;;-6.77;69.19
34374;BME280;20637;55.770;37.592;2024-02-16T03:42:43;101403.50;;;-6.77;68.73
34374;BME280;20637;55.770;37.592;2024-02-16T03:45:09;101401.69;;;-6.73;68.84
34374;BME280;20637;55.770;37.592;2024-02-16T03:47:35;101399.13;;;-6.78;69.24
34374;BME280;20637;55.770;37.592;2024-02-16T03:50:02;101392.16;;;-6.80;69.17
34374;BME280;20637;55.770;37.592;2024-02-16T03:52:28;101378.09;;;-6.76;69.22
34374;BME280;20637;55.770;37.592;2024-02-16T03:54:54;101382.38;;;-6.69;69.24
34374;BME280;20637;55.770;37.592;2024-02-16T03:57:19;101380.53;;;-6.61;68.95
34374;BME280;20637;55.770;37.592;2024-02-16T03:59:45;101386.59;;;-6.56;68.95
34374;BME280;20637;55.770;37.592;2024-02-16T04:02:12;101384.78;;;-6.52;69.19
34374;BME280;20637;55.770;37.592;2024-02-16T04:04:41;101376.06;;;-6.54;69.09
34374;BME280;20637;55.770;37.592;2024-02-16T04:07:06;101372.66;;;-6.62;69.08
34374;BME280;20637;55.770;37.592;2024-02-16T04:09:33;101376.22;;;-6.65;69.22
34374;BME280;20637;55.770;37.592;2024-02-16T04:12:00;101370.03;;;-6.64;69.48
34374;BME280;20637;55.770;37.592;2024-02-16T04:14:26;101376.22;;;-6.66;69.02
34374;BME280;20637;55.770;37.592;2024-02-16T04:16:52;101378.84;;;-6.68;68.97
34374;BME280;20637;55.770;37.592;2024-02-16T04:19:17;101367.50;;;-6.68;68.73
34374;BME280;20637;55.770;37.592;2024-02-16T04:21:43;101370.09;;;-6.65;69.07
34374;BME280;20637;55.770;37.592;2024-02-16T04:24:09;101370.03;;;-6.61;69.33
34374;BME280;20637;55.770;37.592;2024-02-16T04:26:34;101372.56;;;-6.55;69.03
34374;BME280;20637;55.770;37.592;2024-02-16T04:29:00;101361.25;;;-6.60;69.12
34374;BME280;20637;55.770;37.592;2024-02-16T04:31:25;101354.28;;;-6.64;69.10
34374;BME280;20637;55.770;37.592;2024-02-16T04:33:51;101366.50;;;-6.60;69.00
34374;BME280;20637;55.770;37.592;2024-02-16T04:36:18;101363.88;;;-6.58;69.03
34374;BME280;20637;55.770;37.592;2024-02-16T04:38:44;101368.34;;;-6.65;69.06
34374;BME280;20637;55.770;37.592;2024-02-16T04:41:09;101370.97;;;-6.68;69.05
34374;BME280;20637;55.770;37.592;2024-02-16T04:43:35;101363.13;;;-6.69;69.13
34374;BME280;20637;55.770;37.592;2024-02-16T04:46:00;101373.59;;;-6.68;69.68
34374;BME280;20637;55.770;37.592;2024-02-16T04:48:26;101367.47;;;-6.65;69.26
34374;BME280;20637;55.770;37.592;2024-02-16T04:50:52;101370.09;;;-6.67;69.03
34374;BME280;20637;55.770;37.592;2024-02-16T04:53:17;101364.84;;;-6.67;69.34
34374;BME280;20637;55.770;37.592;2024-02-16T04:55:43;101365.72;;;-6.65;69.32
34374;BME280;20637;55.770;37.592;2024-02-16T04:58:09;101366.59;;;-6.66;69.33
34374;BME280;20637;55.770;37.592;2024-02-16T05:00:36;101365.66;;;-6.63;69.36
34374;BME280;20637;55.770;37.592;2024-02-16T05:03:02;101360.47;;;-6.65;69.33
34374;BME280;20637;55.770;37.592;2024-02-16T05:05:28;101359.59;;;-6.67;69.46
34374;BME280;20637;55.770;37.592;2024-02-16T05:07:53;101349.91;;;-6.63;69.44
34374;BME280;20637;55.770;37.592;2024-02-16T05:10:19;101361.19;;;-6.55;69.57
34374;BME280;20637;55.770;37.592;2024-02-16T05:12:45;101359.44;;;-6.55;69.66
34374;BME280;20637;55.770;37.592;2024-02-16T05:15:11;101360.31;;;-6.54;69.40
34374;BME280;20637;55.770;37.592;2024-02-16T05:17:39;101361.19;;;-6.55;69.67
34374;BME280;20637;55.770;37.592;2024-02-16T05:20:11;101360.38;;;-6.59;69.42
34374;BME280;20637;55.770;37.592;2024-02-16T05:22:47;101352.53;;;-6.63;69.28
34374;BME280;20637;55.770;37.592;2024-02-16T05:25:13;101355.28;;;-6.72;69.10
34374;BME280;20637;55.770;37.592;2024-02-16T05:27:39;101363.28;;;-6.83;69.25
34374;BME280;20637;55.770;37.592;2024-02-16T05:30:05;101358.88;;;-6.81;69.66
34374;BME280;20637;55.770;37.592;2024-02-16T05:32:35;101359.66;;;-6.73;69.53
34374;BME280;20637;55.770;37.592;2024-02-16T05:35:02;101370.97;;;-6.66;69.52
34374;BME280;20637;55.770;37.592;2024-02-16T05:37:49;101382.22;;;-6.55;69.99
34374;BME280;20637;55.770;37.592;2024-02-16T05:40:18;101384.75;;;-6.48;69.71
34374;BME280;20637;55.770;37.592;2024-02-16T05:42:53;101390.97;;;-6.55;69.44
34374;BME280;20637;55.770;37.592;2024-02-16T05:45:19;101388.44;;;-6.64;69.08
34374;BME280;20637;55.770;37.592;2024-02-16T05:47:46;101388.47;;;-6.65;69.43
34374;BME280;20637;55.770;37.592;2024-02-16T05:50:13;101396.31;;;-6.64;69.17
34374;BME280;20637;55.770;37.592;2024-02-16T05:52:39;101400.81;;;-6.75;69.00
34374;BME280;20637;55.770;37.592;2024-02-16T05:55:09;101409.63;;;-6.79;69.53
34374;BME280;20637;55.770;37.592;2024-02-16T05:57:36;101406.16;;;-6.81;68.95
34374;BME280;20637;55.770;37.592;2024-02-16T06:00:03;101412.25;;;-6.79;69.10
34374;BME280;20637;55.770;37.592;2024-02-16T06:02:31;101404.31;;;-6.75;69.21
34374;BME280;20637;55.770;37.592;2024-02-16T06:04:57;101403.41;;;-6.70;69.32
34374;BME280;20637;55.770;37.592;2024-02-16T06:07:23;101403.34;;;-6.66;69.28
34374;BME280;20637;55.770;37.592;2024-02-16T06:09:48;101400.69;;;-6.63;69.51
34374;BME280;20637;55.770;37.592;2024-02-16T06:12:14;101398.00;;;-6.60;69.37
34374;BME280;20637;55.770;37.592;2024-02-16T06:14:41;101397.97;;;-6.54;69.27
34374;BME280;20637;55.770;37.592;2024-02-16T06:17:07;101401.41;;;-6.50;69.50
34374;BME280;20637;55.770;37.592;2024-02-16T06:19:33;101405.69;;;-6.42;69.37
34374;BME280;20637;55.770;37.592;2024-02-16T06:21:58;101415.34;;;-6.42;69.17
34374;BME280;20637;55.770;37.592;2024-02-16T06:24:24;101408.41;;;-6.49;69.22
34374;BME280;20637;55.770;37.592;2024-02-16T06:26:50;101414.50;;;-6.46;68.98
34374;BME280;20637;55.770;37.592;2024-02-16T06:29:17;101407.47;;;-6.44;68.86
34374;BME280;20637;55.770;37.592;2024-02-16T06:31:45;101402.16;;;-6.41;69.49
34374;BME280;20637;55.770;37.592;2024-02-16T06:34:13;101410.84;;;-6.34;68.97
34374;BME280;20637;55.770;37.592;2024-02-16T06:36:39;101409.84;;;-6.24;69.57
34374;BME280;20637;55.770;37.592;2024-02-16T06:39:05;101409.72;;;-6.16;68.63
34374;BME280;20637;55.770;37.592;2024-02-16T06:41:30;101408.97;;;-6.24;68.55
34374;BME280;20637;55.770;37.592;2024-02-16T06:43:56;101414.22;;;-6.24;68.76
34374;BME280;20637;55.770;37.592;2024-02-16T06:46:21;101408.91;;;-6.21;68.46
34374;BME280;20637;55.770;37.592;2024-02-16T06:48:47;101402.78;;;-6.20;68.60
34374;BME280;20637;55.770;37.592;2024-02-16T06:51:13;101405.44;;;-6.23;68.46
34374;BME280;20637;55.770;37.592;2024-02-16T06:53:39;101399.31;;;-6.22;68.73
34374;BME280;20637;55.770;37.592;2024-02-16T06:56:04;101408.00;;;-6.17;68.42
34374;BME280;20637;55.770;37.592;2024-02-16T06:58:30;101404.44;;;-6.13;68.77
34374;BME280;20637;55.770;37.592;2024-02-16T07:00:56;101404.38;;;-6.07;68.75
34374;BME280;20637;55.770;37.592;2024-02-16T07:03:23;101400.75;;;-5.99;69.38
34374;BME280;20637;55.770;37.592;2024-02-16T07:05:49;101408.53;;;-5.93;69.10
34374;BME280;20637;55.770;37.592;2024-02-16T07:08:15;101400.66;;;-5.94;69.08
34374;BME280;20637;55.770;37.592;2024-02-16T07:10:40;101398.94;;;-5.95;68.92
34374;BME280;20637;55.770;37.592;2024-02-16T07:13:06;101393.59;;;-5.91;69.06
34374;BME280;20637;55.770;37.592;2024-02-16T07:15:31;101389.19;;;-5.89;68.49
34374;BME280;20637;55.770;37.592;2024-02-16T07:17:57;101389.19;;;-5.89;68.43
34374;BME280;20637;55.770;37.592;2024-02-16T07:20:23;101380.38;;;-5.86;68.71
34374;BME280;20637;55.770;37.592;2024-02-16T07:22:48;101383.03;;;-5.88;68.11
34374;BME280;20637;55.770;37.592;2024-02-16T07:25:17;101379.53;;;-5.88;68.80
34374;BME280;20637;55.770;37.592;2024-02-16T07:27:43;101384.88;;;-5.93;68.08
34374;BME280;20637;55.770;37.592;2024-02-16T07:30:09;101386.63;;;-5.93;68.01
34374;BME280;20637;55.770;37.592;2024-02-16T07:32:36;101399.72;;;-5.89;68.25
34374;BME280;20637;55.770;37.592;2024-02-16T07:35:02;101381.28;;;-5.87;68.70
34374;BME280;20637;55.770;37.592;2024-02-16T07:37:29;101390.06;;;-5.90;68.18
34374;BME280;20637;55.770;37.592;2024-02-16T07:39:55;101391.81;;;-5.87;68.21
34374;BME280;20637;55.770;37.592;2024-02-16T07:42:21;101391.81;;;-5.87;68.00
34374;BME280;20637;55.770;37.592;2024-02-16T07:44:46;101397.06;;;-5.87;68.11
34374;BME280;20637;55.770;37.592;2024-02-16T07:47:12;101393.53;;;-5.86;68.44
34374;BME280;20637;55.770;37.592;2024-02-16T07:49:38;101393.38;;;-5.79;68.03
34374;BME280;20637;55.770;37.592;2024-02-16T07:52:05;101401.25;;;-5.75;68.53
34374;BME280;20637;55.770;37.592;2024-02-16T07:54:31;101396.09;;;-5.85;68.12
34374;BME280;20637;55.770;37.592;2024-02-16T07:56:56;101405.78;;;-5.87;67.82
34374;BME280;20637;55.770;37.592;2024-02-16T07:59:25;101410.22;;;-5.87;67.90
34374;BME280;20637;55.770;37.592;2024-02-16T08:01:50;101403.16;;;-5.87;67.55
34374;BME280;20637;55.770;37.592;2024-02-16T08:04:16;101411.00;;;-5.84;67.55
34374;BME280;20637;55.770;37.592;2024-02-16T08:06:42;101418.91;;;-5.84;68.14
34374;BME280;20637;55.770;37.592;2024-02-16T08:09:07;101423.28;;;-5.84;68.10
34374;BME280;20637;55.770;37.592;2024-02-16T08:11:33;101419.78;;;-5.83;68.41
34374;BME280;20637;55.770;37.592;2024-02-16T08:13:58;101410.91;;;-5.79;68.36
34374;BME280;20637;55.770;37.592;2024-02-16T08:16:29;101408.16;;;-5.68;67.70
34374;BME280;20637;55.770;37.592;2024-02-16T08:18:54;101409.75;;;-5.60;67.98
34374;BME280;20637;55.770;37.592;2024-02-16T08:21:20;101414.09;;;-5.57;68.49
34374;BME280;20637;55.770;37.592;2024-02-16T08:23:46;101419.44;;;-5.62;67.95
34374;BME280;20637;55.770;37.592;2024-02-16T08:26:12;101431.75;;;-5.64;68.30
34374;BME280;20637;55.770;37.592;2024-02-16T08:28:38;101413.34;;;-5.64;68.06
34374;BME280;20637;55.770;37.592;2024-02-16T08:31:04;101408.03;;;-5.62;67.38
34374;BME280;20637;55.770;37.592;2024-02-16T08:33:30;101402.78;;;-5.62;67.90
34374;BME280;20637;55.770;37.592;2024-02-16T08:35:57;101394.88;;;-5.62;67.51
34374;BME280;20637;55.770;37.592;2024-02-16T08:38:22;101407.03;;;-5.54;67.97
34374;BME280;20637;55.770;37.592;2024-02-16T08:40:48;101407.78;;;-5.47;68.29
34374;BME280;20637;55.770;37.592;2024-02-16T08:43:16;101413.88;;;-5.44;67.47
34374;BME280;20637;55.770;37.592;2024-02-16T08:45:42;101411.25;;;-5.44;67.99
34374;BME280;20637;55.770;37.592;2024-02-16T08:48:07;101400.72;;;-5.44;67.37
34374;BME280;20637;55.770;37.592;2024-02-16T08:50:33;101401.59;;;-5.43;67.51
34374;BME280;20637;55.770;37.592;2024-02-16T08:52:59;101413.78;;;-5.38;68.25
34374;BME280;20637;55.770;37.592;2024-02-16T08:55:24;101418.03;;;-5.29;67.61
34374;BME280;20637;55.770;37.592;2024-02-16T08:57:50;101416.16;;;-5.24;67.96
34374;BME280;20637;55.770;37.592;2024-02-16T09:00:15;101416.16;;;-5.24;67.39
34374;BME280;20637;55.770;37.592;2024-02-16T09:02:42;101408.25;;;-5.22;67.30
34374;BME280;20637;55.770;37.592;2024-02-16T09:05:07;101416.97;;;-5.17;67.40
34374;BME280;20637;55.770;37.592;2024-02-16T09:07:35;101411.66;;;-5.16;67.17
34374;BME280;20637;55.770;37.592;2024-02-16T09:10:01;101426.56;;;-5.16;68.02
34374;BME280;20637;55.770;37.592;2024-02-16T09:12:26;101419.47;;;-5.11;67.41
34374;BME280;20637;55.770;37.592;2024-02-16T09:14:52;101415.03;;;-5.09;67.49
34374;BME280;20637;55.770;37.592;2024-02-16T09:17:17;101417.66;;;-5.08;67.53
34374;BME280;20637;55.770;37.592;2024-02-16T09:19:44;101411.44;;;-5.04;67.33
34374;BME280;20637;55.770;37.592;2024-02-16T09:22:10;101414.00;;;-5.01;67.35
34374;BME280;20637;55.770;37.592;2024-02-16T09:24:35;101402.59;;;-5.00;67.74
34374;BME280;20637;55.770;37.592;2024-02-16T09:27:02;101407.84;;;-5.00;67.17
34374;BME280;20637;55.770;37.592;2024-02-16T09:29:30;101406.91;;;-4.97;67.07
34374;BME280;20637;55.770;37.592;2024-02-16T09:31:56;101398.13;;;-4.95;67.24
34374;BME280;20637;55.770;37.592;2024-02-16T09:34:21;101397.25;;;-4.95;66.51
34374;BME280;20637;55.770;37.592;2024-02-16T09:36:47;101381.44;;;-4.95;66.71
34374;BME280;20637;55.770;37.592;2024-02-16T09:39:12;101385.91;;;-5.00;66.50
34374;BME280;20637;55.770;37.592;2024-02-16T09:41:41;101387.75;;;-5.04;66.84
34374;BME280;20637;55.770;37.592;2024-02-16T09:44:07;101389.44;;;-5.01;67.07
34374;BME280;20637;55.770;37.592;2024-02-16T09:46:33;101395.47;;;-4.95;66.62
34374;BME280;20637;55.770;37.592;2024-02-16T09:49:01;101385.69;;;-4.87;66.38
34374;BME280;20637;55.770;37.592;2024-02-16T09:51:28;101369.88;;;-4.87;66.59
34374;BME280;20637;55.770;37.592;2024-02-16T09:53:53;101373.47;;;-4.91;66.36
34374;BME280;20637;55.770;37.592;2024-02-16T09:56:22;101366.38;;;-4.87;66.90
34374;BME280;20637;55.770;37.592;2024-02-16T09:58:51;101346.03;;;-4.81;66.74
34374;BME280;20637;55.770;37.592;2024-02-16T10:01:21;101354.00;;;-4.84;66.90
34374;BME280;20637;55.770;37.592;2024-02-16T10:03:48;101345.47;;;-4.96;66.82
34374;BME280;20637;55.770;37.592;2024-02-16T10:06:14;101357.16;;;-5.12;65.86
34374;BME280;20637;55.770;37.592;2024-02-16T10:08:48;101361.53;;;-5.11;66.98
34374;BME280;20637;55.770;37.592;2024-02-16T10:11:17;101358.75;;;-5.02;67.26
34374;BME280;20637;55.770;37.592;2024-02-16T10:16:22;101353.50;;;-5.02;67.28
34374;BME280;20637;55.770;37.592;2024-02-16T10:18:47;101358.94;;;-5.13;66.38
34374;BME280;20637;55.770;37.592;2024-02-16T10:21:13;101352.84;;;-5.16;66.16
34374;BME280;20637;55.770;37.592;2024-02-16T10:23:38;101345.09;;;-5.22;66.93
34374;BME280;20637;55.770;37.592;2024-02-16T10:26:04;101347.66;;;-5.19;67.39
34374;BME280;20637;55.770;37.592;2024-02-16T10:28:29;101355.56;;;-5.19;66.93
34374;BME280;20637;55.770;37.592;2024-02-16T10:30:59;101343.13;;;-5.11;67.24
34374;BME280;20637;55.770;37.592;2024-02-16T10:33:28;101348.22;;;-5.02;67.54
34374;BME280;20637;55.770;37.592;2024-02-16T10:35:57;101337.63;;;-4.99;67.09
34374;BME280;20637;55.770;37.592;2024-02-16T10:38:24;101347.16;;;-4.94;67.61
34374;BME280;20637;55.770;37.592;2024-02-16T10:40:53;101347.06;;;-4.89;67.23
34374;BME280;20637;55.770;37.592;2024-02-16T10:43:20;101354.00;;;-4.84;66.57
34374;BME280;20637;55.770;37.592;2024-02-16T10:45:47;101348.72;;;-4.84;67.06
34374;BME280;20637;55.770;37.592;2024-02-16T10:48:18;101354.81;;;-4.80;66.39
34374;BME280;20637;55.770;37.592;2024-02-16T10:50:44;101344.19;;;-4.75;67.46
34374;BME280;20637;55.770;37.592;2024-02-16T10:53:23;101357.22;;;-4.69;66.29
34374;BME280;20637;55.770;37.592;2024-02-16T10:55:50;101347.63;;;-4.73;66.18
34374;BME280;20637;55.770;37.592;2024-02-16T10:58:18;101344.22;;;-4.78;67.02
34374;BME280;20637;55.770;37.592;2024-02-16T11:01:08;101342.41;;;-4.75;66.12
34374;BME280;20637;55.770;37.592;2024-02-16T11:03:37;101355.47;;;-4.70;66.57
34374;BME280;20637;55.770;37.592;2024-02-16T11:06:15;101352.84;;;-4.70;66.60
34374;BME280;20637;55.770;37.592;2024-02-16T11:08:43;101354.50;;;-4.66;67.05
34374;BME280;20637;55.770;37.592;2024-02-16T11:11:09;101363.28;;;-4.64;66.81
34374;BME280;20637;55.770;37.592;2024-02-16T11:13:42;101359.75;;;-4.65;66.15
34374;BME280;20637;55.770;37.592;2024-02-16T11:16:09;101362.41;;;-4.65;65.94
34374;BME280;20637;55.770;37.592;2024-02-16T11:18:39;101358.22;;;-4.75;66.00
34374;BME280;20637;55.770;37.592;2024-02-16T11:21:05;101359.84;;;-4.68;66.24
34374;BME280;20637;55.770;37.592;2024-02-16T11:23:35;101353.47;;;-4.59;67.22
34374;BME280;20637;55.770;37.592;2024-02-16T11:26:05;101350.03;;;-4.61;66.16
34374;BME280;20637;55.770;37.592;2024-02-16T11:28:37;101353.44;;;-4.56;66.79
34374;BME280;20637;55.770;37.592;2024-02-16T11:31:03;101352.47;;;-4.52;66.94
34374;BME280;20637;55.770;37.592;2024-02-16T11:33:30;101354.25;;;-4.53;65.97
34374;BME280;20637;55.770;37.592;2024-02-16T11:36:00;101351.63;;;-4.54;67.00
34374;BME280;20637;55.770;37.592;2024-02-16T11:38:26;101337.50;;;-4.52;65.84
34374;BME280;20637;55.770;37.592;2024-02-16T11:41:03;101334.03;;;-4.52;66.15
34374;BME280;20637;55.770;37.592;2024-02-16T11:43:30;101342.84;;;-4.53;65.81
34374;BME280;20637;55.770;37.592;2024-02-16T11:45:58;101345.41;;;-4.50;66.15
34374;BME280;20637;55.770;37.592;2024-02-16T11:48:25;101331.25;;;-4.46;66.88
34374;BME280;20637;55.770;37.592;2024-02-16T11:51:03;101337.31;;;-4.43;67.06
34374;BME280;20637;55.770;37.592;2024-02-16T11:53:29;101335.47;;;-4.38;66.66
34374;BME280;20637;55.770;37.592;2024-02-16T11:55:55;101338.13;;;-4.39;66.53
34374;BME280;20637;55.770;37.592;2024-02-16T11:58:21;101336.44;;;-4.42;66.09
34374;BME280;20637;55.770;37.592;2024-02-16T12:00:48;101342.66;;;-4.44;65.62
34374;BME280;20637;55.770;37.592;2024-02-16T12:03:21;101341.78;;;-4.46;65.90
34374;BME280;20637;55.770;37.592;2024-02-16T12:05:58;101342.59;;;-4.43;66.91
34374;BME280;20637;55.770;37.592;2024-02-16T12:08:31;101346.09;;;-4.42;66.52
34374;BME280;20637;55.770;37.592;2024-02-16T12:10:58;101354.97;;;-4.45;66.71
34374;BME280;20637;55.770;37.592;2024-02-16T12:13:23;101351.44;;;-4.45;66.19
34374;BME280;20637;55.770;37.592;2024-02-16T12:15:51;101353.22;;;-4.47;66.11
34374;BME280;20637;55.770;37.592;2024-02-16T12:18:24;101354.19;;;-4.51;66.09
34374;BME280;20637;55.770;37.592;2024-02-16T12:21:03;101356.03;;;-4.55;66.18
34374;BME280;20637;55.770;37.592;2024-02-16T12:23:31;101353.22;;;-4.47;65.76
34374;BME280;20637;55.770;37.592;2024-02-16T12:25:58;101354.16;;;-4.48;65.67
34374;BME280;20637;55.770;37.592;2024-02-16T12:28:25;101355.91;;;-4.49;66.49
34374;BME280;20637;55.770;37.592;2024-02-16T12:30:51;101353.22;;;-4.47;66.51
34374;BME280;20637;55.770;37.592;2024-02-16T12:33:17;101361.94;;;-4.44;66.31
34374;BME280;20637;55.770;37.592;2024-02-16T12:35:42;101349.69;;;-4.45;65.36
34374;BME280;20637;55.770;37.592;2024-02-16T12:38:10;101351.44;;;-4.45;65.60
34374;BME280;20637;55.770;37.592;2024-02-16T12:40:36;101363.69;;;-4.43;66.10